Time;durP1;ratioP1;P1;durP2;ratioP2;P2;SDS_P1;SDS_P2;PMS_P1;PMS_P2;Temp;Humidity;BMP_temperature;BMP_pressure;BME280_temperature;BME280_humidity;BME280_pressure;Samples;Min_cycle;Max_cycle;Signal;HPM_P1;HPM_P2
2022/04/06 00:01:24;;;;;;;6.32;2.35;;;;;;;9.16;63.63;99938.69;18368240;32;20426;-65
2022/04/06 00:11:28;;;;;;;4.30;2.03;;;;;;;8.78;64.54;99931.00;18368266;32;20121;-66
2022/04/06 00:21:32;;;;;;;4.70;2.15;;;;;;;8.52;65.71;99918.88;18361050;32;20073;-66
2022/04/06 00:31:35;;;;;;;5.50;2.25;;;;;;;8.04;66.36;99937.94;18367725;32;20112;-65
2022/04/06 00:41:40;;;;;;;6.57;2.60;;;;;;;7.71;65.88;99940.50;18367309;32;20097;-66
2022/04/06 00:51:45;;;;;;;5.68;2.70;;;;;;;7.77;67.25;99934.44;18366417;32;20097;-66
2022/04/06 01:01:51;;;;;;;6.30;2.85;;;;;;;7.84;68.08;99938.78;18368230;32;20119;-65
2022/04/06 01:11:54;;;;;;;7.62;3.17;;;;;;;7.72;67.84;99943.97;18366554;32;20089;-65
2022/04/06 01:21:59;;;;;;;5.00;2.25;;;;;;;8.07;66.97;99958.75;18367817;32;20097;-65
2022/04/06 01:32:11;;;;;;;8.60;3.50;;;;;;;8.25;67.10;99941.41;18366116;32;20093;-65
2022/04/06 01:42:15;;;;;;;6.50;2.35;;;;;;;8.38;67.23;99942.28;18365403;32;20108;-65
2022/04/06 01:52:20;;;;;;;11.80;3.92;;;;;;;8.43;67.27;99943.16;18365243;32;20394;-65
2022/04/06 02:02:25;;;;;;;7.10;3.25;;;;;;;8.30;67.04;99932.78;18365304;32;20096;-65
2022/04/06 02:12:30;;;;;;;6.85;3.10;;;;;;;8.37;67.43;99938.84;18365415;32;20136;-65
2022/04/06 02:22:33;;;;;;;6.85;2.70;;;;;;;8.08;68.25;99944.91;18364763;32;20086;-65
2022/04/06 02:32:38;;;;;;;9.10;3.42;;;;;;;8.14;67.39;99944.88;18366412;32;20101;-65
2022/04/06 02:42:41;;;;;;;6.47;2.50;;;;;;;8.37;67.29;99946.63;18365094;32;20102;-65
2022/04/06 02:52:46;;;;;;;5.20;2.78;;;;;;;8.42;67.55;99931.03;18364720;32;20629;-65
2022/04/06 03:02:50;;;;;;;6.62;2.80;;;;;;;8.21;68.61;99918.91;18362535;32;20098;-65
2022/04/06 03:12:54;;;;;;;6.28;3.03;;;;;;;8.16;69.53;99932.78;18363350;32;20159;-65
2022/04/06 03:23:03;;;;;;;7.85;3.58;;;;;;;8.37;68.95;99936.22;18370534;32;20085;-66
2022/04/06 03:33:09;;;;;;;7.93;3.37;;;;;;;8.27;69.61;99944.91;18368823;32;20105;-65
2022/04/06 03:43:12;;;;;;;8.85;3.35;;;;;;;8.53;68.77;99938.81;18370422;32;20089;-65
2022/04/06 03:53:16;;;;;;;8.75;3.53;;;;;;;8.63;69.12;99947.50;18369074;32;20112;-65
2022/04/06 04:03:19;;;;;;;6.90;2.35;;;;;;;8.98;67.94;99955.22;18368526;32;20102;-66
2022/04/06 04:13:25;;;;;;;4.68;2.20;;;;;;;9.68;66.04;99943.66;18367955;32;20099;-66
2022/04/06 04:23:29;;;;;;;5.72;2.28;;;;;;;10.07;64.25;99944.25;18370108;32;20093;-65
2022/04/06 04:33:33;;;;;;;5.82;2.37;;;;;;;9.99;64.51;99946.91;18366642;32;107592;-65
2022/04/06 04:43:37;;;;;;;7.45;3.12;;;;;;;10.06;64.21;99959.91;18370389;32;20629;-65
2022/04/06 04:53:42;;;;;;;7.20;2.78;;;;;;;10.23;63.98;99970.22;18370212;32;20458;-65
2022/04/06 05:03:45;;;;;;;7.47;3.05;;;;;;;10.23;63.30;99980.66;18369742;32;20090;-66
2022/04/06 05:13:50;;;;;;;8.48;3.58;;;;;;;10.32;62.88;99980.56;18370532;32;20093;-65
2022/04/06 05:23:53;;;;;;;6.75;3.12;;;;;;;10.48;62.51;99993.53;18365480;32;20101;-65
2022/04/06 05:34:01;;;;;;;8.48;3.33;;;;;;;10.85;61.61;100010.59;18368744;32;20089;-65
2022/04/06 05:44:05;;;;;;;7.35;3.05;;;;;;;10.89;61.70;100021.00;18368050;32;20413;-65
2022/04/06 05:54:09;;;;;;;10.75;3.30;;;;;;;10.93;61.75;100034.91;18368055;32;20097;-66
2022/04/06 06:04:12;;;;;;;9.18;3.47;;;;;;;11.23;61.75;100028.50;18368449;32;20107;-66
2022/04/06 06:14:17;;;;;;;8.35;3.72;;;;;;;11.50;60.18;100033.44;18367393;32;20137;-66
2022/04/06 06:24:21;;;;;;;8.02;3.47;;;;;;;12.24;58.52;100018.53;18349951;32;20093;-66
2022/04/06 06:34:25;;;;;;;9.90;4.62;;;;;;;12.41;57.39;100030.47;18367242;32;20090;-66
2022/04/06 06:44:28;;;;;;;9.32;3.62;;;;;;;15.09;54.90;100015.28;18365291;32;20119;-67
2022/04/06 06:54:33;;;;;;;6.62;3.30;;;;;;;20.64;36.17;100009.16;18362218;32;20135;-67
2022/04/06 07:04:36;;;;;;;7.70;3.20;;;;;;;23.25;32.03;100001.88;18359370;32;20094;-69
2022/04/06 07:14:41;;;;;;;8.75;4.05;;;;;;;22.98;30.55;100013.25;18340754;32;20097;-68
2022/04/06 07:24:44;;;;;;;11.18;4.20;;;;;;;21.67;32.65;100028.62;18346618;32;20103;-68
2022/04/06 07:34:53;;;;;;;8.02;3.53;;;;;;;21.85;32.37;100017.91;18355478;32;20431;-68
2022/04/06 07:44:57;;;;;;;8.98;4.00;;;;;;;23.60;29.69;100017.47;18346314;32;20108;-68
2022/04/06 07:55:04;;;;;;;12.43;4.93;;;;;;;21.63;32.75;100021.75;18362091;32;20097;-69
2022/04/06 08:05:08;;;;;;;9.45;4.00;;;;;;;20.34;35.67;100007.06;18366541;32;20635;-67
2022/04/06 08:15:14;;;;;;;11.35;4.05;;;;;;;19.91;36.40;100010.84;18371083;32;20438;-67
2022/04/06 08:25:17;;;;;;;12.00;4.40;;;;;;;19.40;35.33;100013.22;18369965;32;20093;-67
2022/04/06 08:35:41;;;;;;;10.98;4.32;;;;;;;19.16;35.53;100016.03;18369659;32;20138;-67
2022/04/06 08:45:44;;;;;;;12.25;4.18;;;;;;;20.03;34.45;100005.94;18367385;32;20356;-66
2022/04/06 08:56:04;;;;;;;7.72;3.30;;;;;;;19.42;35.20;100006.06;18370778;32;20827;-67
2022/04/06 09:06:09;;;;;;;9.35;3.67;;;;;;;19.22;35.78;99994.59;18368614;32;20097;-67
2022/04/06 09:16:16;;;;;;;9.23;3.55;;;;;;;19.16;36.06;99992.22;18366918;32;20112;-67
2022/04/06 09:26:21;;;;;;;10.40;3.72;;;;;;;19.86;33.90;99994.31;18350479;32;20090;-68
2022/04/06 09:36:28;;;;;;;7.95;3.33;;;;;;;20.21;33.46;99975.06;18305916;32;20089;-67
2022/04/06 09:56:55;;;;;;;6.80;2.27;;;;;;;22.84;29.23;99956.37;18324341;32;20089;-67
2022/04/06 10:06:59;;;;;;;5.97;2.42;;;;;;;23.84;27.07;99929.75;18301321;32;20111;-67
2022/04/06 10:17:04;;;;;;;4.22;2.00;;;;;;;23.49;28.88;99924.06;18348850;32;20137;-67
2022/04/06 10:27:16;;;;;;;5.43;1.92;;;;;;;24.77;26.71;99909.37;18349165;32;20097;-68
2022/04/06 10:37:21;;;;;;;7.22;2.50;;;;;;;25.61;25.50;99900.84;18365993;32;20101;-67
2022/04/06 10:47:31;;;;;;;7.43;3.40;;;;;;;24.16;27.73;99879.78;18364919;32;20085;-67
2022/04/06 10:57:57;;;;;;;6.12;3.00;;;;;;;23.02;29.38;99868.38;18365252;32;20131;-67
2022/04/06 11:18:47;;;;;;;8.18;3.70;;;;;;;21.19;32.62;99848.87;18348505;32;20449;-67
2022/04/06 11:28:56;;;;;;;6.90;3.08;;;;;;;21.34;32.42;99827.69;18356871;32;20101;-67
2022/04/06 11:39:01;;;;;;;7.72;2.72;;;;;;;21.27;32.02;99824.53;18304691;32;20112;-67
2022/04/06 11:49:05;;;;;;;6.68;2.47;;;;;;;21.85;31.18;99811.53;18331798;32;20119;-68
2022/04/06 11:59:16;;;;;;;6.35;2.70;;;;;;;22.57;30.20;99784.25;18361400;32;20128;-67
2022/04/06 12:09:25;;;;;;;5.75;2.37;;;;;;;22.58;29.29;99780.63;18329568;32;20167;-67
2022/04/06 12:19:33;;;;;;;5.60;1.95;;;;;;;23.27;26.82;99750.50;18333780;32;20097;-67
2022/04/06 12:29:38;;;;;;;3.12;1.42;;;;;;;22.58;27.53;99734.53;18365120;32;20119;-67
2022/04/06 12:39:50;;;;;;;3.60;1.87;;;;;;;22.85;27.88;99723.94;18368442;32;20097;-67
2022/04/06 12:49:53;;;;;;;;;;;;;;;22.17;28.19;99707.78;18363532;32;20115;-68
2022/04/06 12:59:58;;;;;;;8.30;2.95;;;;;;;21.93;29.73;99702.16;18367154;32;19974;-67
2022/04/06 13:10:03;;;;;;;8.23;2.92;;;;;;;22.81;28.24;99679.00;18368971;32;20138;-67
2022/04/06 13:20:09;;;;;;;8.55;3.87;;;;;;;22.76;28.75;99665.16;18367826;32;20093;-67
2022/04/06 13:30:13;;;;;;;10.07;4.15;;;;;;;22.97;28.63;99647.78;18312534;32;20105;-67
2022/04/06 13:40:18;;;;;;;9.23;3.40;;;;;;;23.02;29.15;99623.53;18340153;32;20101;-67
2022/04/06 13:50:22;;;;;;;10.13;4.62;;;;;;;23.37;27.65;99609.66;18357150;32;20394;-67
2022/04/06 14:00:27;;;;;;;7.53;3.25;;;;;;;22.82;28.19;99598.25;18303016;32;20712;-67
2022/04/06 14:10:30;;;;;;;7.75;3.20;;;;;;;22.85;28.84;99576.75;18301853;32;20360;-67
2022/04/06 14:20:35;;;;;;;7.62;3.10;;;;;;;23.23;27.80;99567.13;18308611;32;20172;-67
2022/04/06 14:30:38;;;;;;;7.00;3.17;;;;;;;23.42;26.77;99540.12;18367393;32;20104;-67
2022/04/06 14:40:43;;;;;;;7.12;2.80;;;;;;;23.40;25.66;99516.25;18366770;32;20137;-67
2022/04/06 14:50:47;;;;;;;6.53;2.70;;;;;;;23.10;27.07;99504.09;18365830;32;20112;-67
2022/04/06 15:00:51;;;;;;;8.65;3.62;;;;;;;22.78;26.66;99498.31;18348781;32;20093;-67
2022/04/06 15:10:55;;;;;;;7.78;3.15;;;;;;;22.86;27.06;99480.88;18363370;32;20139;-67
2022/04/06 15:21:00;;;;;;;9.88;3.65;;;;;;;22.42;28.75;99463.44;18368984;32;20106;-67
2022/04/06 15:31:04;;;;;;;10.27;3.97;;;;;;;22.49;28.57;99451.47;18364825;32;20101;-67
2022/04/06 15:41:09;;;;;;;11.57;3.62;;;;;;;22.08;29.24;99441.72;18358635;32;20098;-67
2022/04/06 15:51:12;;;;;;;9.05;3.30;;;;;;;22.09;28.79;99430.13;18372034;32;20093;-67
2022/04/06 16:01:17;;;;;;;6.47;2.30;;;;;;;22.08;28.23;99416.03;18372868;32;20101;-67
2022/04/06 16:11:20;;;;;;;6.60;2.58;;;;;;;21.67;28.22;99409.81;18371536;32;20120;-67
2022/04/06 16:21:24;;;;;;;6.50;2.62;;;;;;;21.80;28.34;99396.56;18370827;32;20413;-67
2022/04/06 16:31:28;;;;;;;7.93;3.20;;;;;;;21.61;29.05;99380.94;18355858;32;20102;-67
2022/04/06 16:41:33;;;;;;;7.97;3.25;;;;;;;21.45;29.58;99371.34;18355052;32;20097;-67
2022/04/06 17:02:01;;;;;;;7.47;2.70;;;;;;;21.38;30.57;99354.09;18368743;32;20450;-67
2022/04/06 17:12:05;;;;;;;6.60;2.70;;;;;;;20.88;32.21;99341.28;18366471;32;20101;-67
2022/04/06 17:22:10;;;;;;;9.63;3.30;;;;;;;20.35;32.40;99335.63;18366791;32;20123;-67
2022/04/06 17:32:13;;;;;;;6.45;2.85;;;;;;;20.35;32.11;99330.34;18366816;32;20417;-67
2022/04/06 17:42:18;;;;;;;9.25;2.95;;;;;;;20.18;32.20;99334.84;18366110;32;20109;-67
2022/04/06 17:52:21;;;;;;;7.45;2.72;;;;;;;19.65;34.04;99331.69;18365217;32;20117;-68
2022/04/06 18:02:26;;;;;;;6.12;2.40;;;;;;;18.96;35.15;99337.22;18365940;32;20096;-67
2022/04/06 18:22:51;;;;;;;6.78;2.70;;;;;;;17.60;38.87;99346.66;18357205;32;20093;-66
2022/04/06 18:32:54;;;;;;;4.90;2.33;;;;;;;16.95;41.53;99347.00;18360423;32;20108;-66
2022/04/06 18:43:00;;;;;;;6.68;2.33;;;;;;;16.05;43.03;99361.44;18365262;32;20092;-66
2022/04/06 18:53:03;;;;;;;12.02;3.95;;;;;;;15.58;44.57;99358.03;18362315;32;20426;-67
2022/04/06 19:03:07;;;;;;;5.12;2.40;;;;;;;14.93;44.99;99360.47;18356786;32;20117;-66
2022/04/06 19:13:11;;;;;;;6.20;2.58;;;;;;;14.56;45.87;99352.16;18316009;32;20102;-67
2022/04/06 19:23:15;;;;;;;7.12;3.05;;;;;;;14.19;46.74;99346.41;18308499;32;20573;-68
2022/04/06 19:33:19;;;;;;;5.12;2.62;;;;;;;13.86;47.80;99349.25;18316901;32;20093;-66
2022/04/06 19:43:23;;;;;;;9.93;3.67;;;;;;;13.34;50.43;99342.09;18324696;32;20115;-66
2022/04/06 19:53:26;;;;;;;8.02;3.67;;;;;;;13.17;50.04;99332.97;18333842;32;20468;-66
2022/04/06 20:03:31;;;;;;;8.50;4.57;;;;;;;12.83;52.47;99320.00;18352924;32;20160;-66
2022/04/06 20:13:35;;;;;;;11.77;4.60;;;;;;;12.53;53.45;99323.47;18346152;32;20111;-66
2022/04/06 20:23:39;;;;;;;27.83;11.12;;;;;;;12.33;54.79;99322.25;18353833;32;20089;-66
2022/04/06 20:33:46;;;;;;;28.30;11.55;;;;;;;12.21;54.42;99312.09;18355526;32;20532;-66
2022/04/06 20:43:51;;;;;;;25.65;10.27;;;;;;;11.96;56.33;99294.41;18366706;32;20183;-66
2022/04/06 20:53:55;;;;;;;17.00;8.05;;;;;;;11.63;58.14;99299.56;18368208;32;20112;-66
2022/04/06 21:04:00;;;;;;;16.75;7.47;;;;;;;11.34;57.80;99290.66;18369250;32;20098;-66
2022/04/06 21:14:03;;;;;;;14.35;7.43;;;;;;;11.05;57.88;99282.59;18366807;32;20098;-66
2022/04/06 21:24:08;;;;;;;17.35;8.05;;;;;;;11.04;58.43;99280.84;18367423;32;20123;-66
2022/04/06 21:34:11;;;;;;;20.08;8.10;;;;;;;10.41;60.67;99270.84;18366696;32;20112;-66
2022/04/06 21:44:16;;;;;;;15.15;8.10;;;;;;;10.35;60.88;99267.47;18364358;32;20140;-66
2022/04/06 21:54:19;;;;;;;17.52;8.40;;;;;;;10.25;61.02;99258.97;18368626;32;20358;-66
2022/04/06 22:04:24;;;;;;;19.73;9.52;;;;;;;9.85;61.50;99253.59;18367981;32;20145;-66
2022/04/06 22:14:29;;;;;;;15.90;7.72;;;;;;;9.93;62.04;99252.59;18368099;32;20113;-66
2022/04/06 22:24:34;;;;;;;17.05;7.90;;;;;;;10.02;62.57;99244.63;18366327;32;20092;-66
2022/04/06 22:34:37;;;;;;;18.75;8.65;;;;;;;9.91;61.35;99234.41;18367004;32;20097;-66
2022/04/06 22:44:41;;;;;;;19.37;9.30;;;;;;;9.53;63.12;99221.13;18366766;32;20101;-65
2022/04/06 22:54:45;;;;;;;21.75;12.35;;;;;;;9.28;63.47;99208.50;18366483;32;20127;-65
2022/04/06 23:04:49;;;;;;;21.23;11.27;;;;;;;9.35;63.31;99203.22;18365467;32;20128;-65
2022/04/06 23:14:53;;;;;;;22.13;12.15;;;;;;;9.25;64.38;99198.16;18364960;32;20145;-65
2022/04/06 23:24:58;;;;;;;26.80;12.15;;;;;;;9.58;62.76;99176.78;18365369;32;20508;-66
2022/04/06 23:35:01;;;;;;;18.17;11.27;;;;;;;9.08;65.20;99167.19;18367020;32;20106;-65
2022/04/06 23:45:07;;;;;;;24.37;11.32;;;;;;;8.88;65.75;99162.28;18372422;32;20129;-65
2022/04/06 23:55:10;;;;;;;34.08;14.40;;;;;;;8.72;65.37;99141.69;18371586;32;20179;-65
